sensor_id;sensor_type;location;lat;lon;timestamp;pressure;altitude;pressure_sealevel;temperature;humidity
27613;BME280;15036;48.094;-1.690;2023-08-06T00:01:11;101132.56;;;18.97;58.88
27613;BME280;15036;48.094;-1.690;2023-08-06T00:03:37;101132.72;;;19.08;58.23
27613;BME280;15036;48.094;-1.690;2023-08-06T00:06:02;101135.22;;;19.21;58.16
27613;BME280;15036;48.094;-1.690;2023-08-06T00:08:27;101134.91;;;18.66;59.45
27613;BME280;15036;48.094;-1.690;2023-08-06T00:10:53;101129.59;;;19.72;56.69
27613;BME280;15036;48.094;-1.690;2023-08-06T00:13:18;101136.97;;;18.98;58.77
27613;BME280;15036;48.094;-1.690;2023-08-06T00:15:43;101130.75;;;19.31;58.34
27613;BME280;15036;48.094;-1.690;2023-08-06T00:18:09;101128.91;;;19.09;58.70
27613;BME280;15036;48.094;-1.690;2023-08-06T00:20:34;101130.97;;;19.30;57.80
27613;BME280;15036;48.094;-1.690;2023-08-06T00:22:59;101137.88;;;18.64;60.01
27613;BME280;15036;48.094;-1.690;2023-08-06T00:25:25;101139.38;;;19.46;57.45
27613;BME280;15036;48.094;-1.690;2023-08-06T00:27:50;101142.22;;;19.51;57.23
27613;BME280;15036;48.094;-1.690;2023-08-06T00:30:16;101142.78;;;18.97;58.61
27613;BME280;15036;48.094;-1.690;2023-08-06T00:32:41;101145.06;;;18.88;58.89
27613;BME280;15036;48.094;-1.690;2023-08-06T00:35:07;101159.84;;;18.94;58.97
27613;BME280;15036;48.094;-1.690;2023-08-06T00:37:32;101144.03;;;19.74;56.76
27613;BME280;15036;48.094;-1.690;2023-08-06T00:39:57;101157.63;;;19.19;58.21
27613;BME280;15036;48.094;-1.690;2023-08-06T00:42:23;101162.63;;;18.82;59.26
27613;BME280;15036;48.094;-1.690;2023-08-06T00:44:48;101158.41;;;19.03;58.70
27613;BME280;15036;48.094;-1.690;2023-08-06T00:47:14;101159.19;;;18.52;59.93
27613;BME280;15036;48.094;-1.690;2023-08-06T00:49:40;101160.53;;;18.50;59.87
27613;BME280;15036;48.094;-1.690;2023-08-06T00:52:06;101168.41;;;19.32;57.74
27613;BME280;15036;48.094;-1.690;2023-08-06T00:54:33;101167.53;;;18.92;58.75
27613;BME280;15036;48.094;-1.690;2023-08-06T00:56:59;101164.75;;;19.03;58.47
27613;BME280;15036;48.094;-1.690;2023-08-06T00:59:26;101162.16;;;19.37;57.68
27613;BME280;15036;48.094;-1.690;2023-08-06T01:01:51;101171.09;;;19.55;57.01
27613;BME280;15036;48.094;-1.690;2023-08-06T01:04:17;101176.97;;;18.79;59.15
27613;BME280;15036;48.094;-1.690;2023-08-06T01:06:47;101181.75;;;18.84;58.78
27613;BME280;15036;48.094;-1.690;2023-08-06T01:09:35;101183.56;;;18.78;59.25
27613;BME280;15036;48.094;-1.690;2023-08-06T01:17:23;101189.31;;;18.31;60.85
27613;BME280;15036;48.094;-1.690;2023-08-06T01:19:49;101192.09;;;18.42;60.68
27613;BME280;15036;48.094;-1.690;2023-08-06T01:22:14;101191.03;;;18.66;59.92
27613;BME280;15036;48.094;-1.690;2023-08-06T01:24:41;101191.47;;;18.40;60.99
27613;BME280;15036;48.094;-1.690;2023-08-06T01:27:16;101189.13;;;18.55;60.32
27613;BME280;15036;48.094;-1.690;2023-08-06T01:29:50;101192.16;;;18.01;61.84
27613;BME280;15036;48.094;-1.690;2023-08-06T01:32:21;101189.22;;;18.95;59.06
27613;BME280;15036;48.094;-1.690;2023-08-06T01:34:48;101187.06;;;18.74;59.57
27613;BME280;15036;48.094;-1.690;2023-08-06T01:37:14;101186.94;;;18.34;60.80
27613;BME280;15036;48.094;-1.690;2023-08-06T01:39:42;101193.25;;;17.59;63.10
27613;BME280;15036;48.094;-1.690;2023-08-06T01:42:08;101192.31;;;18.06;61.39
27613;BME280;15036;48.094;-1.690;2023-08-06T01:44:34;101199.75;;;18.17;61.74
27613;BME280;15036;48.094;-1.690;2023-08-06T01:47:00;101190.44;;;18.53;60.81
27613;BME280;15036;48.094;-1.690;2023-08-06T01:49:27;101204.53;;;17.98;62.09
27613;BME280;15036;48.094;-1.690;2023-08-06T01:51:53;101200.38;;;18.19;61.94
27613;BME280;15036;48.094;-1.690;2023-08-06T01:54:18;101199.94;;;18.45;60.91
27613;BME280;15036;48.094;-1.690;2023-08-06T01:56:44;101208.31;;;18.27;61.03
27613;BME280;15036;48.094;-1.690;2023-08-06T01:59:09;101200.66;;;18.75;60.22
27613;BME280;15036;48.094;-1.690;2023-08-06T02:01:34;101201.50;;;18.64;60.15
27613;BME280;15036;48.094;-1.690;2023-08-06T02:04:00;101211.31;;;18.37;61.76
27613;BME280;15036;48.094;-1.690;2023-08-06T02:06:25;101212.03;;;18.21;61.76
27613;BME280;15036;48.094;-1.690;2023-08-06T02:08:50;101218.13;;;18.00;62.20
27613;BME280;15036;48.094;-1.690;2023-08-06T02:11:16;101212.78;;;18.28;61.49
27613;BME280;15036;48.094;-1.690;2023-08-06T02:13:41;101220.22;;;18.39;61.25
27613;BME280;15036;48.094;-1.690;2023-08-06T02:16:07;101228.59;;;18.09;62.21
27613;BME280;15036;48.094;-1.690;2023-08-06T02:18:33;101222.81;;;18.11;61.97
27613;BME280;15036;48.094;-1.690;2023-08-06T02:20:59;101226.34;;;18.30;61.50
27613;BME280;15036;48.094;-1.690;2023-08-06T02:23:25;101225.78;;;17.98;62.08
27613;BME280;15036;48.094;-1.690;2023-08-06T02:25:58;101215.69;;;18.79;59.64
27613;BME280;15036;48.094;-1.690;2023-08-06T02:28:24;101228.31;;;17.99;62.02
27613;BME280;15036;48.094;-1.690;2023-08-06T02:30:50;101220.16;;;18.46;61.12
27613;BME280;15036;48.094;-1.690;2023-08-06T02:33:16;101224.72;;;18.63;60.37
27613;BME280;15036;48.094;-1.690;2023-08-06T02:35:41;101214.38;;;18.93;59.62
27613;BME280;15036;48.094;-1.690;2023-08-06T02:38:07;101230.69;;;19.07;58.95
27613;BME280;15036;48.094;-1.690;2023-08-06T02:40:32;101222.13;;;18.39;60.64
27613;BME280;15036;48.094;-1.690;2023-08-06T02:42:57;101223.03;;;18.62;60.42
27613;BME280;15036;48.094;-1.690;2023-08-06T02:45:22;101222.91;;;18.46;60.69
27613;BME280;15036;48.094;-1.690;2023-08-06T02:47:48;101222.03;;;18.34;60.86
27613;BME280;15036;48.094;-1.690;2023-08-06T02:50:13;101213.53;;;18.58;60.08
27613;BME280;15036;48.094;-1.690;2023-08-06T02:52:39;101210.75;;;18.47;60.16
27613;BME280;15036;48.094;-1.690;2023-08-06T02:55:06;101230.78;;;18.31;60.72
27613;BME280;15036;48.094;-1.690;2023-08-06T02:57:31;101222.97;;;18.16;61.02
27613;BME280;15036;48.094;-1.690;2023-08-06T02:59:57;101222.44;;;18.49;60.05
27613;BME280;15036;48.094;-1.690;2023-08-06T03:02:22;101218.22;;;18.69;59.37
27613;BME280;15036;48.094;-1.690;2023-08-06T03:04:48;101227.97;;;18.07;61.34
27613;BME280;15036;48.094;-1.690;2023-08-06T03:07:13;101226.44;;;18.23;60.80
27613;BME280;15036;48.094;-1.690;2023-08-06T03:09:38;101238.34;;;18.12;61.01
27613;BME280;15036;48.094;-1.690;2023-08-06T03:12:05;101228.56;;;18.62;59.49
27613;BME280;15036;48.094;-1.690;2023-08-06T03:14:30;101233.88;;;18.75;59.00
27613;BME280;15036;48.094;-1.690;2023-08-06T03:16:56;101227.16;;;18.18;60.75
27613;BME280;15036;48.094;-1.690;2023-08-06T03:19:21;101234.03;;;18.16;60.99
27613;BME280;15036;48.094;-1.690;2023-08-06T03:21:46;101224.88;;;18.27;60.69
27613;BME280;15036;48.094;-1.690;2023-08-06T03:24:13;101233.72;;;17.94;61.69
27613;BME280;15036;48.094;-1.690;2023-08-06T03:26:38;101223.75;;;17.64;62.57
27613;BME280;15036;48.094;-1.690;2023-08-06T03:29:04;101234.81;;;17.27;63.73
27613;BME280;15036;48.094;-1.690;2023-08-06T03:31:29;101239.34;;;17.04;65.41
27613;BME280;15036;48.094;-1.690;2023-08-06T03:33:54;101229.34;;;17.57;63.78
27613;BME280;15036;48.094;-1.690;2023-08-06T03:36:20;101233.28;;;17.79;62.77
27613;BME280;15036;48.094;-1.690;2023-08-06T03:38:45;101228.97;;;17.35;63.96
27613;BME280;15036;48.094;-1.690;2023-08-06T03:41:10;101234.72;;;17.34;64.22
27613;BME280;15036;48.094;-1.690;2023-08-06T03:43:36;101234.59;;;17.29;64.44
27613;BME280;15036;48.094;-1.690;2023-08-06T03:46:01;101234.91;;;17.03;66.00
27613;BME280;15036;48.094;-1.690;2023-08-06T03:48:26;101243.41;;;17.19;65.24
27613;BME280;15036;48.094;-1.690;2023-08-06T03:50:52;101238.25;;;17.59;63.81
27613;BME280;15036;48.094;-1.690;2023-08-06T03:53:17;101241.00;;;17.89;62.54
27613;BME280;15036;48.094;-1.690;2023-08-06T03:55:42;101242.50;;;17.73;62.87
27613;BME280;15036;48.094;-1.690;2023-08-06T03:58:08;101251.06;;;17.54;64.10
27613;BME280;15036;48.094;-1.690;2023-08-06T04:00:33;101251.44;;;17.87;62.50
27613;BME280;15036;48.094;-1.690;2023-08-06T04:02:59;101248.91;;;18.15;61.80
27613;BME280;15036;48.094;-1.690;2023-08-06T04:05:24;101256.72;;;18.18;61.67
27613;BME280;15036;48.094;-1.690;2023-08-06T04:07:49;101254.34;;;18.33;61.25
27613;BME280;15036;48.094;-1.690;2023-08-06T04:10:15;101263.06;;;18.18;61.14
27613;BME280;15036;48.094;-1.690;2023-08-06T04:12:40;101257.97;;;17.63;63.10
27613;BME280;15036;48.094;-1.690;2023-08-06T04:15:06;101259.94;;;17.74;62.88
27613;BME280;15036;48.094;-1.690;2023-08-06T04:17:31;101259.59;;;17.82;62.67
27613;BME280;15036;48.094;-1.690;2023-08-06T04:19:57;101258.75;;;17.52;63.38
27613;BME280;15036;48.094;-1.690;2023-08-06T04:22:23;101266.38;;;16.77;65.41
27613;BME280;15036;48.094;-1.690;2023-08-06T04:24:49;101269.75;;;17.33;64.08
27613;BME280;15036;48.094;-1.690;2023-08-06T04:27:15;101267.56;;;17.60;63.48
27613;BME280;15036;48.094;-1.690;2023-08-06T04:29:40;101256.63;;;17.47;64.05
27613;BME280;15036;48.094;-1.690;2023-08-06T04:32:09;101272.44;;;17.22;65.53
27613;BME280;15036;48.094;-1.690;2023-08-06T04:34:35;101266.88;;;17.10;65.60
27613;BME280;15036;48.094;-1.690;2023-08-06T04:37:01;101256.13;;;17.20;65.48
27613;BME280;15036;48.094;-1.690;2023-08-06T04:39:27;101254.00;;;17.22;65.84
27613;BME280;15036;48.094;-1.690;2023-08-06T04:41:52;101263.91;;;16.69;67.49
27613;BME280;15036;48.094;-1.690;2023-08-06T04:44:18;101278.50;;;16.52;68.34
27613;BME280;15036;48.094;-1.690;2023-08-06T04:46:43;101272.59;;;16.91;67.24
27613;BME280;15036;48.094;-1.690;2023-08-06T04:49:09;101275.22;;;17.40;65.54
27613;BME280;15036;48.094;-1.690;2023-08-06T04:51:34;101277.56;;;17.00;66.99
27613;BME280;15036;48.094;-1.690;2023-08-06T04:54:00;101283.13;;;17.18;66.22
27613;BME280;15036;48.094;-1.690;2023-08-06T04:56:25;101291.03;;;16.90;66.80
27613;BME280;15036;48.094;-1.690;2023-08-06T04:58:51;101297.19;;;16.92;66.79
27613;BME280;15036;48.094;-1.690;2023-08-06T05:01:16;101298.44;;;17.32;65.51
27613;BME280;15036;48.094;-1.690;2023-08-06T05:03:42;101299.00;;;17.23;66.04
27613;BME280;15036;48.094;-1.690;2023-08-06T05:06:07;101300.63;;;17.67;64.96
27613;BME280;15036;48.094;-1.690;2023-08-06T05:08:33;101299.84;;;17.60;65.16
27613;BME280;15036;48.094;-1.690;2023-08-06T05:10:58;101304.13;;;17.74;64.42
27613;BME280;15036;48.094;-1.690;2023-08-06T05:13:23;101303.66;;;17.22;65.54
27613;BME280;15036;48.094;-1.690;2023-08-06T05:15:50;101298.44;;;17.14;66.24
27613;BME280;15036;48.094;-1.690;2023-08-06T05:18:15;101309.69;;;16.95;66.65
27613;BME280;15036;48.094;-1.690;2023-08-06T05:20:42;101302.44;;;17.18;66.42
27613;BME280;15036;48.094;-1.690;2023-08-06T05:23:07;101316.38;;;17.96;63.65
27613;BME280;15036;48.094;-1.690;2023-08-06T05:25:36;101308.50;;;17.27;65.89
27613;BME280;15036;48.094;-1.690;2023-08-06T05:28:02;101315.13;;;17.92;63.94
27613;BME280;15036;48.094;-1.690;2023-08-06T05:30:28;101320.94;;;17.72;64.55
27613;BME280;15036;48.094;-1.690;2023-08-06T05:32:54;101329.75;;;17.45;65.57
27613;BME280;15036;48.094;-1.690;2023-08-06T05:35:20;101328.63;;;17.27;66.39
27613;BME280;15036;48.094;-1.690;2023-08-06T05:37:46;101327.09;;;17.31;66.72
27613;BME280;15036;48.094;-1.690;2023-08-06T05:40:11;101333.06;;;17.10;67.56
27613;BME280;15036;48.094;-1.690;2023-08-06T05:42:36;101331.63;;;17.51;66.52
27613;BME280;15036;48.094;-1.690;2023-08-06T05:45:02;101340.47;;;17.34;66.96
27613;BME280;15036;48.094;-1.690;2023-08-06T05:47:27;101353.59;;;16.96;68.42
27613;BME280;15036;48.094;-1.690;2023-08-06T05:49:53;101345.44;;;17.44;66.68
27613;BME280;15036;48.094;-1.690;2023-08-06T05:52:18;101344.81;;;17.49;66.63
27613;BME280;15036;48.094;-1.690;2023-08-06T05:54:43;101349.88;;;17.45;67.03
27613;BME280;15036;48.094;-1.690;2023-08-06T05:57:09;101347.88;;;17.16;67.64
27613;BME280;15036;48.094;-1.690;2023-08-06T05:59:34;101347.41;;;17.62;66.84
27613;BME280;15036;48.094;-1.690;2023-08-06T06:01:59;101360.09;;;17.45;68.17
27613;BME280;15036;48.094;-1.690;2023-08-06T06:04:25;101357.81;;;18.26;65.04
27613;BME280;15036;48.094;-1.690;2023-08-06T06:06:50;101362.72;;;18.24;65.11
27613;BME280;15036;48.094;-1.690;2023-08-06T06:09:15;101362.91;;;18.10;65.59
27613;BME280;15036;48.094;-1.690;2023-08-06T06:11:41;101365.53;;;18.05;66.10
27613;BME280;15036;48.094;-1.690;2023-08-06T06:14:06;101376.41;;;18.89;63.47
27613;BME280;15036;48.094;-1.690;2023-08-06T06:16:31;101373.53;;;18.43;64.56
27613;BME280;15036;48.094;-1.690;2023-08-06T06:18:57;101383.59;;;18.38;64.97
27613;BME280;15036;48.094;-1.690;2023-08-06T06:21:23;101387.56;;;18.42;65.04
27613;BME280;15036;48.094;-1.690;2023-08-06T06:23:49;101386.53;;;19.19;63.12
27613;BME280;15036;48.094;-1.690;2023-08-06T06:26:17;101384.50;;;18.50;65.21
27613;BME280;15036;48.094;-1.690;2023-08-06T06:28:42;101390.03;;;18.50;65.04
27613;BME280;15036;48.094;-1.690;2023-08-06T06:31:07;101391.66;;;18.80;63.86
27613;BME280;15036;48.094;-1.690;2023-08-06T06:33:33;101400.72;;;18.99;63.85
27613;BME280;15036;48.094;-1.690;2023-08-06T06:35:58;101412.19;;;18.61;64.64
27613;BME280;15036;48.094;-1.690;2023-08-06T06:38:23;101404.28;;;18.76;64.21
27613;BME280;15036;48.094;-1.690;2023-08-06T06:40:57;101409.19;;;18.63;64.62
27613;BME280;15036;48.094;-1.690;2023-08-06T06:43:23;101407.84;;;19.30;62.75
27613;BME280;15036;48.094;-1.690;2023-08-06T06:45:56;101410.03;;;18.63;65.07
27613;BME280;15036;48.094;-1.690;2023-08-06T06:48:22;101407.72;;;19.25;63.20
27613;BME280;15036;48.094;-1.690;2023-08-06T06:50:48;101406.53;;;19.09;63.72
27613;BME280;15036;48.094;-1.690;2023-08-06T06:53:14;101422.56;;;19.42;62.58
27613;BME280;15036;48.094;-1.690;2023-08-06T06:55:39;101418.03;;;18.94;63.84
27613;BME280;15036;48.094;-1.690;2023-08-06T06:58:04;101423.25;;;19.14;62.52
27613;BME280;15036;48.094;-1.690;2023-08-06T07:00:30;101439.22;;;18.89;64.55
27613;BME280;15036;48.094;-1.690;2023-08-06T07:02:55;101432.44;;;19.61;61.89
27613;BME280;15036;48.094;-1.690;2023-08-06T07:05:20;101438.97;;;18.90;63.73
27613;BME280;15036;48.094;-1.690;2023-08-06T07:07:46;101442.13;;;18.64;65.48
27613;BME280;15036;48.094;-1.690;2023-08-06T07:10:11;101432.69;;;19.48;62.37
27613;BME280;15036;48.094;-1.690;2023-08-06T07:12:36;101438.63;;;18.98;63.98
27613;BME280;15036;48.094;-1.690;2023-08-06T07:15:05;101439.78;;;18.79;64.94
27613;BME280;15036;48.094;-1.690;2023-08-06T07:17:31;101450.75;;;18.56;65.40
27613;BME280;15036;48.094;-1.690;2023-08-06T07:19:56;101433.06;;;18.28;66.73
27613;BME280;15036;48.094;-1.690;2023-08-06T07:22:22;101428.91;;;19.31;63.92
27613;BME280;15036;48.094;-1.690;2023-08-06T07:24:47;101435.09;;;19.33;63.67
27613;BME280;15036;48.094;-1.690;2023-08-06T07:27:12;101421.59;;;19.59;62.67
27613;BME280;15036;48.094;-1.690;2023-08-06T07:29:38;101433.53;;;18.84;64.85
27613;BME280;15036;48.094;-1.690;2023-08-06T07:32:03;101436.63;;;19.86;61.64
27613;BME280;15036;48.094;-1.690;2023-08-06T07:34:29;101434.66;;;19.99;61.54
27613;BME280;15036;48.094;-1.690;2023-08-06T07:36:54;101436.91;;;20.25;60.82
27613;BME280;15036;48.094;-1.690;2023-08-06T07:39:19;101441.72;;;19.66;62.22
27613;BME280;15036;48.094;-1.690;2023-08-06T07:41:45;101446.53;;;19.59;62.51
27613;BME280;15036;48.094;-1.690;2023-08-06T07:44:11;101444.91;;;20.49;60.47
27613;BME280;15036;48.094;-1.690;2023-08-06T07:46:36;101444.41;;;20.52;60.01
27613;BME280;15036;48.094;-1.690;2023-08-06T07:49:02;101434.41;;;20.51;60.26
27613;BME280;15036;48.094;-1.690;2023-08-06T07:51:28;101435.97;;;21.20;58.18
27613;BME280;15036;48.094;-1.690;2023-08-06T07:53:53;101442.34;;;21.04;58.42
27613;BME280;15036;48.094;-1.690;2023-08-06T07:56:18;101436.47;;;20.56;59.33
27613;BME280;15036;48.094;-1.690;2023-08-06T07:58:44;101433.69;;;20.16;59.79
27613;BME280;15036;48.094;-1.690;2023-08-06T08:01:09;101436.81;;;20.76;59.04
27613;BME280;15036;48.094;-1.690;2023-08-06T08:03:34;101442.06;;;20.89;58.56
27613;BME280;15036;48.094;-1.690;2023-08-06T08:06:00;101451.28;;;20.78;58.36
27613;BME280;15036;48.094;-1.690;2023-08-06T08:08:25;101439.91;;;21.08;57.14
27613;BME280;15036;48.094;-1.690;2023-08-06T08:10:51;101438.41;;;21.50;56.02
27613;BME280;15036;48.094;-1.690;2023-08-06T08:13:16;101452.91;;;21.19;56.65
27613;BME280;15036;48.094;-1.690;2023-08-06T08:15:41;101455.50;;;21.09;56.73
27613;BME280;15036;48.094;-1.690;2023-08-06T08:18:07;101454.47;;;21.31;55.86
27613;BME280;15036;48.094;-1.690;2023-08-06T08:20:32;101453.31;;;21.61;55.04
27613;BME280;15036;48.094;-1.690;2023-08-06T08:23:00;101444.59;;;21.74;55.02
27613;BME280;15036;48.094;-1.690;2023-08-06T08:25:26;101437.94;;;22.13;53.78
27613;BME280;15036;48.094;-1.690;2023-08-06T08:27:52;101440.53;;;21.98;53.48
27613;BME280;15036;48.094;-1.690;2023-08-06T08:30:17;101434.00;;;21.54;53.80
27613;BME280;15036;48.094;-1.690;2023-08-06T08:32:43;101424.81;;;21.53;54.58
27613;BME280;15036;48.094;-1.690;2023-08-06T08:35:08;101433.22;;;22.13;53.26
27613;BME280;15036;48.094;-1.690;2023-08-06T08:37:33;101446.13;;;22.24;52.80
27613;BME280;15036;48.094;-1.690;2023-08-06T08:39:59;101442.59;;;22.29;52.27
27613;BME280;15036;48.094;-1.690;2023-08-06T08:42:26;101440.34;;;22.26;53.00
27613;BME280;15036;48.094;-1.690;2023-08-06T08:44:53;101441.38;;;21.98;53.51
27613;BME280;15036;48.094;-1.690;2023-08-06T08:47:19;101451.44;;;21.49;54.44
27613;BME280;15036;48.094;-1.690;2023-08-06T08:49:44;101462.50;;;21.00;55.21
27613;BME280;15036;48.094;-1.690;2023-08-06T08:52:11;101439.91;;;22.12;52.82
27613;BME280;15036;48.094;-1.690;2023-08-06T08:54:39;101460.13;;;21.20;54.08
27613;BME280;15036;48.094;-1.690;2023-08-06T08:57:05;101440.97;;;21.90;52.01
27613;BME280;15036;48.094;-1.690;2023-08-06T08:59:33;101449.56;;;21.72;52.66
27613;BME280;15036;48.094;-1.690;2023-08-06T09:02:00;101431.31;;;22.40;50.84
27613;BME280;15036;48.094;-1.690;2023-08-06T09:04:28;101443.28;;;22.63;49.64
27613;BME280;15036;48.094;-1.690;2023-08-06T09:06:56;101450.13;;;22.77;49.00
27613;BME280;15036;48.094;-1.690;2023-08-06T09:09:26;101450.28;;;23.23;48.28
27613;BME280;15036;48.094;-1.690;2023-08-06T09:11:52;101454.03;;;22.76;48.84
27613;BME280;15036;48.094;-1.690;2023-08-06T09:14:19;101440.75;;;22.88;48.15
27613;BME280;15036;48.094;-1.690;2023-08-06T09:16:44;101439.72;;;22.67;48.87
27613;BME280;15036;48.094;-1.690;2023-08-06T09:19:11;101447.03;;;22.52;49.31
27613;BME280;15036;48.094;-1.690;2023-08-06T09:21:39;101448.72;;;21.88;50.29
27613;BME280;15036;48.094;-1.690;2023-08-06T09:24:13;101438.78;;;22.13;50.27
27613;BME280;15036;48.094;-1.690;2023-08-06T09:26:41;101442.53;;;22.67;48.66
27613;BME280;15036;48.094;-1.690;2023-08-06T09:29:08;101438.03;;;22.44;48.79
27613;BME280;15036;48.094;-1.690;2023-08-06T09:31:47;101437.38;;;23.12;47.40
27613;BME280;15036;48.094;-1.690;2023-08-06T09:34:20;101430.59;;;22.72;47.36
27613;BME280;15036;48.094;-1.690;2023-08-06T09:36:52;101445.34;;;22.51;48.31
27613;BME280;15036;48.094;-1.690;2023-08-06T09:39:20;101440.16;;;22.81;46.53
27613;BME280;15036;48.094;-1.690;2023-08-06T09:41:47;101448.47;;;22.76;46.85
27613;BME280;15036;48.094;-1.690;2023-08-06T09:44:20;101451.97;;;22.93;46.27
27613;BME280;15036;48.094;-1.690;2023-08-06T09:46:57;101449.19;;;23.24;45.47
27613;BME280;15036;48.094;-1.690;2023-08-06T09:49:40;101456.16;;;22.69;47.50
27613;BME280;15036;48.094;-1.690;2023-08-06T09:52:11;101467.50;;;23.15;46.91
27613;BME280;15036;48.094;-1.690;2023-08-06T09:54:37;101443.25;;;23.16;47.65
27613;BME280;15036;48.094;-1.690;2023-08-06T09:57:03;101459.69;;;22.86;48.24
27613;BME280;15036;48.094;-1.690;2023-08-06T09:59:29;101462.31;;;22.71;48.89
27613;BME280;15036;48.094;-1.690;2023-08-06T10:01:56;101456.22;;;23.00;46.36
27613;BME280;15036;48.094;-1.690;2023-08-06T10:04:21;101457.69;;;22.81;46.50
27613;BME280;15036;48.094;-1.690;2023-08-06T10:06:49;101449.97;;;23.20;45.03
27613;BME280;15036;48.094;-1.690;2023-08-06T10:09:14;101462.47;;;23.44;44.77
27613;BME280;15036;48.094;-1.690;2023-08-06T10:11:42;101459.06;;;23.74;44.32
27613;BME280;15036;48.094;-1.690;2023-08-06T10:14:15;101461.88;;;23.10;45.61
27613;BME280;15036;48.094;-1.690;2023-08-06T10:16:42;101462.84;;;22.46;46.36
27613;BME280;15036;48.094;-1.690;2023-08-06T10:19:09;101464.41;;;23.12;45.61
27613;BME280;15036;48.094;-1.690;2023-08-06T10:21:38;101468.09;;;23.17;44.75
27613;BME280;15036;48.094;-1.690;2023-08-06T10:24:06;101463.16;;;23.61;43.78
27613;BME280;15036;48.094;-1.690;2023-08-06T10:26:35;101463.28;;;24.18;42.90
27613;BME280;15036;48.094;-1.690;2023-08-06T10:29:34;101469.84;;;24.54;42.56
27613;BME280;15036;48.094;-1.690;2023-08-06T10:32:00;101474.59;;;24.01;42.63
27613;BME280;15036;48.094;-1.690;2023-08-06T10:37:44;101474.78;;;24.37;41.21
27613;BME280;15036;48.094;-1.690;2023-08-06T10:40:09;101458.09;;;24.57;40.41
27613;BME280;15036;48.094;-1.690;2023-08-06T10:42:34;101475.16;;;24.60;40.38
27613;BME280;15036;48.094;-1.690;2023-08-06T10:45:13;101478.25;;;24.64;40.73
27613;BME280;15036;48.094;-1.690;2023-08-06T10:47:40;101470.03;;;24.32;41.36
27613;BME280;15036;48.094;-1.690;2023-08-06T10:50:13;101476.44;;;24.33;41.70
27613;BME280;15036;48.094;-1.690;2023-08-06T10:52:41;101475.00;;;23.78;42.64
27613;BME280;15036;48.094;-1.690;2023-08-06T10:55:07;101484.03;;;23.95;42.40
27613;BME280;15036;48.094;-1.690;2023-08-06T10:57:32;101485.44;;;23.98;42.27
27613;BME280;15036;48.094;-1.690;2023-08-06T10:59:58;101491.53;;;24.32;41.63
27613;BME280;15036;48.094;-1.690;2023-08-06T11:02:23;101491.56;;;24.47;41.31
27613;BME280;15036;48.094;-1.690;2023-08-06T11:04:49;101489.78;;;24.92;40.39
27613;BME280;15036;48.094;-1.690;2023-08-06T11:07:14;101489.06;;;24.45;41.52
27613;BME280;15036;48.094;-1.690;2023-08-06T11:09:41;101492.72;;;24.46;41.11
27613;BME280;15036;48.094;-1.690;2023-08-06T11:12:10;101493.47;;;25.03;40.78
27613;BME280;15036;48.094;-1.690;2023-08-06T11:14:36;101488.66;;;24.73;41.17
27613;BME280;15036;48.094;-1.690;2023-08-06T11:17:01;101484.22;;;24.26;42.39
27613;BME280;15036;48.094;-1.690;2023-08-06T11:19:27;101483.97;;;25.09;40.62
27613;BME280;15036;48.094;-1.690;2023-08-06T11:21:54;101478.34;;;24.94;40.93
27613;BME280;15036;48.094;-1.690;2023-08-06T11:24:20;101461.63;;;25.49;39.87
27613;BME280;15036;48.094;-1.690;2023-08-06T11:26:46;101477.50;;;24.83;42.14
27613;BME280;15036;48.094;-1.690;2023-08-06T11:29:12;101476.66;;;24.83;41.38
27613;BME280;15036;48.094;-1.690;2023-08-06T11:31:37;101487.38;;;25.46;40.48
27613;BME280;15036;48.094;-1.690;2023-08-06T11:34:02;101480.19;;;24.63;41.18
27613;BME280;15036;48.094;-1.690;2023-08-06T11:36:32;101478.38;;;25.95;39.56
27613;BME280;15036;48.094;-1.690;2023-08-06T11:39:01;101478.09;;;25.36;40.45
27613;BME280;15036;48.094;-1.690;2023-08-06T11:41:28;101478.94;;;25.21;40.87
27613;BME280;15036;48.094;-1.690;2023-08-06T11:43:54;101484.53;;;25.11;40.98
27613;BME280;15036;48.094;-1.690;2023-08-06T11:46:19;101471.09;;;25.18;41.01
27613;BME280;15036;48.094;-1.690;2023-08-06T11:48:55;101481.19;;;25.09;41.23
27613;BME280;15036;48.094;-1.690;2023-08-06T11:51:24;101473.94;;;25.48;40.86
27613;BME280;15036;48.094;-1.690;2023-08-06T11:53:54;101470.84;;;25.10;41.00
27613;BME280;15036;48.094;-1.690;2023-08-06T11:56:22;101467.59;;;24.51;42.34
27613;BME280;15036;48.094;-1.690;2023-08-06T11:58:47;101465.94;;;24.60;41.39
27613;BME280;15036;48.094;-1.690;2023-08-06T12:01:13;101451.56;;;25.13;40.55
27613;BME280;15036;48.094;-1.690;2023-08-06T12:03:42;101453.78;;;25.16;40.51
27613;BME280;15036;48.094;-1.690;2023-08-06T12:06:07;101447.63;;;25.85;39.17
27613;BME280;15036;48.094;-1.690;2023-08-06T12:08:33;101459.56;;;26.20;38.59
27613;BME280;15036;48.094;-1.690;2023-08-06T12:10:58;101447.63;;;25.69;38.51
27613;BME280;15036;48.094;-1.690;2023-08-06T12:13:23;101456.59;;;25.11;39.00
27613;BME280;15036;48.094;-1.690;2023-08-06T12:15:49;101468.56;;;24.81;39.47
27613;BME280;15036;48.094;-1.690;2023-08-06T12:18:14;101471.94;;;25.04;39.38
27613;BME280;15036;48.094;-1.690;2023-08-06T12:20:40;101460.22;;;25.02;39.86
27613;BME280;15036;48.094;-1.690;2023-08-06T12:23:05;101445.91;;;25.84;38.59
27613;BME280;15036;48.094;-1.690;2023-08-06T12:25:31;101457.41;;;24.91;39.45
27613;BME280;15036;48.094;-1.690;2023-08-06T12:27:56;101442.56;;;25.87;38.81
27613;BME280;15036;48.094;-1.690;2023-08-06T12:30:21;101440.81;;;26.06;38.69
27613;BME280;15036;48.094;-1.690;2023-08-06T12:32:47;101454.91;;;25.25;39.08
27613;BME280;15036;48.094;-1.690;2023-08-06T12:35:12;101463.00;;;25.02;39.33
27613;BME280;15036;48.094;-1.690;2023-08-06T12:37:39;101456.59;;;25.36;39.03
27613;BME280;15036;48.094;-1.690;2023-08-06T12:40:05;101452.66;;;25.57;38.34
27613;BME280;15036;48.094;-1.690;2023-08-06T12:42:30;101460.50;;;25.20;38.69
27613;BME280;15036;48.094;-1.690;2023-08-06T12:44:55;101462.19;;;25.56;38.45